sensor_id;sensor_type;location;lat;lon;timestamp;temperature;humidity
19359;DHT22;9815;52.334;20.890;2022-10-31T00:01:34;7.60;99.90
19359;DHT22;9815;52.334;20.890;2022-10-31T00:04:04;7.50;99.90
19359;DHT22;9815;52.334;20.890;2022-10-31T00:06:32;7.50;99.90
19359;DHT22;9815;52.334;20.890;2022-10-31T00:09:03;7.50;99.90
19359;DHT22;9815;52.334;20.890;2022-10-31T00:11:31;7.40;99.90
19359;DHT22;9815;52.334;20.890;2022-10-31T00:14:00;7.40;99.90
19359;DHT22;9815;52.334;20.890;2022-10-31T00:16:28;7.40;99.90
19359;DHT22;9815;52.334;20.890;2022-10-31T00:18:58;7.40;99.90
19359;DHT22;9815;52.334;20.890;2022-10-31T00:21:28;7.40;99.90
19359;DHT22;9815;52.334;20.890;2022-10-31T00:23:57;7.40;99.90
19359;DHT22;9815;52.334;20.890;2022-10-31T00:26:26;7.40;99.90
19359;DHT22;9815;52.334;20.890;2022-10-31T00:28:55;7.30;99.90
19359;DHT22;9815;52.334;20.890;2022-10-31T00:31:23;7.30;99.90
19359;DHT22;9815;52.334;20.890;2022-10-31T00:33:51;7.30;99.90
19359;DHT22;9815;52.334;20.890;2022-10-31T00:36:19;7.20;99.90
19359;DHT22;9815;52.334;20.890;2022-10-31T00:38:49;7.20;99.90
19359;DHT22;9815;52.334;20.890;2022-10-31T00:41:17;7.20;99.90
19359;DHT22;9815;52.334;20.890;2022-10-31T00:43:45;7.20;99.90
19359;DHT22;9815;52.334;20.890;2022-10-31T00:46:13;7.20;99.90
19359;DHT22;9815;52.334;20.890;2022-10-31T00:48:41;7.20;99.90
19359;DHT22;9815;52.334;20.890;2022-10-31T00:51:10;7.10;99.90
19359;DHT22;9815;52.334;20.890;2022-10-31T00:53:40;7.10;99.90
19359;DHT22;9815;52.334;20.890;2022-10-31T00:56:09;7.10;99.90
19359;DHT22;9815;52.334;20.890;2022-10-31T00:58:37;7.00;99.90
19359;DHT22;9815;52.334;20.890;2022-10-31T01:01:06;7.00;99.90
19359;DHT22;9815;52.334;20.890;2022-10-31T01:03:34;6.90;99.90
19359;DHT22;9815;52.334;20.890;2022-10-31T01:06:11;6.90;99.90
19359;DHT22;9815;52.334;20.890;2022-10-31T01:08:40;6.80;99.90
19359;DHT22;9815;52.334;20.890;2022-10-31T01:11:14;6.80;99.90
19359;DHT22;9815;52.334;20.890;2022-10-31T01:13:43;6.80;99.90
19359;DHT22;9815;52.334;20.890;2022-10-31T01:16:14;6.80;99.90
19359;DHT22;9815;52.334;20.890;2022-10-31T01:18:42;6.80;99.90
19359;DHT22;9815;52.334;20.890;2022-10-31T01:21:13;6.70;99.90
19359;DHT22;9815;52.334;20.890;2022-10-31T01:23:41;6.80;99.90
19359;DHT22;9815;52.334;20.890;2022-10-31T01:26:15;6.70;99.90
19359;DHT22;9815;52.334;20.890;2022-10-31T01:28:45;6.70;99.90
19359;DHT22;9815;52.334;20.890;2022-10-31T01:31:15;6.70;99.90
19359;DHT22;9815;52.334;20.890;2022-10-31T01:33:43;6.70;99.90
19359;DHT22;9815;52.334;20.890;2022-10-31T01:36:16;6.70;99.90
19359;DHT22;9815;52.334;20.890;2022-10-31T01:38:45;6.70;99.90
19359;DHT22;9815;52.334;20.890;2022-10-31T01:41:17;6.70;99.90
19359;DHT22;9815;52.334;20.890;2022-10-31T01:43:48;6.70;99.90
19359;DHT22;9815;52.334;20.890;2022-10-31T01:46:19;6.60;99.90
19359;DHT22;9815;52.334;20.890;2022-10-31T01:48:48;6.60;99.90
19359;DHT22;9815;52.334;20.890;2022-10-31T01:51:18;6.50;99.90
19359;DHT22;9815;52.334;20.890;2022-10-31T01:53:48;6.50;99.90
19359;DHT22;9815;52.334;20.890;2022-10-31T01:56:19;6.50;99.90
19359;DHT22;9815;52.334;20.890;2022-10-31T01:58:47;6.50;99.90
19359;DHT22;9815;52.334;20.890;2022-10-31T02:01:16;6.50;99.90
19359;DHT22;9815;52.334;20.890;2022-10-31T02:03:46;6.50;99.90
19359;DHT22;9815;52.334;20.890;2022-10-31T02:06:21;6.50;99.90
19359;DHT22;9815;52.334;20.890;2022-10-31T02:08:52;6.50;99.90
19359;DHT22;9815;52.334;20.890;2022-10-31T02:11:22;6.50;99.90
19359;DHT22;9815;52.334;20.890;2022-10-31T02:13:52;6.50;99.90
19359;DHT22;9815;52.334;20.890;2022-10-31T02:16:21;6.50;99.90
19359;DHT22;9815;52.334;20.890;2022-10-31T02:18:49;6.50;99.90
19359;DHT22;9815;52.334;20.890;2022-10-31T02:21:22;6.50;99.90
19359;DHT22;9815;52.334;20.890;2022-10-31T02:27:19;6.50;99.90
19359;DHT22;9815;52.334;20.890;2022-10-31T02:30:08;6.50;99.90
19359;DHT22;9815;52.334;20.890;2022-10-31T02:32:58;6.50;99.90
19359;DHT22;9815;52.334;20.890;2022-10-31T02:35:41;6.40;99.90
19359;DHT22;9815;52.334;20.890;2022-10-31T02:38:23;6.40;99.90
19359;DHT22;9815;52.334;20.890;2022-10-31T02:41:00;6.40;99.90
19359;DHT22;9815;52.334;20.890;2022-10-31T02:43:38;6.40;99.90
19359;DHT22;9815;52.334;20.890;2022-10-31T02:46:11;6.40;99.90
19359;DHT22;9815;52.334;20.890;2022-10-31T02:48:44;6.40;99.90
19359;DHT22;9815;52.334;20.890;2022-10-31T02:51:13;6.30;99.90
19359;DHT22;9815;52.334;20.890;2022-10-31T02:53:43;6.30;99.90
19359;DHT22;9815;52.334;20.890;2022-10-31T02:56:12;6.30;99.90
19359;DHT22;9815;52.334;20.890;2022-10-31T02:58:44;6.30;99.90
19359;DHT22;9815;52.334;20.890;2022-10-31T03:01:31;6.20;99.90
19359;DHT22;9815;52.334;20.890;2022-10-31T03:04:16;6.20;99.90
19359;DHT22;9815;52.334;20.890;2022-10-31T03:06:54;6.20;99.90
19359;DHT22;9815;52.334;20.890;2022-10-31T03:09:28;6.20;99.90
19359;DHT22;9815;52.334;20.890;2022-10-31T03:12:06;6.20;99.90
19359;DHT22;9815;52.334;20.890;2022-10-31T03:14:40;6.20;99.90
19359;DHT22;9815;52.334;20.890;2022-10-31T03:17:14;6.20;99.90
19359;DHT22;9815;52.334;20.890;2022-10-31T03:19:48;6.20;99.90
19359;DHT22;9815;52.334;20.890;2022-10-31T03:22:21;6.20;99.90
19359;DHT22;9815;52.334;20.890;2022-10-31T03:24:52;6.10;99.90
19359;DHT22;9815;52.334;20.890;2022-10-31T03:27:24;6.10;99.90
19359;DHT22;9815;52.334;20.890;2022-10-31T03:29:56;6.10;99.90
19359;DHT22;9815;52.334;20.890;2022-10-31T03:32:29;6.00;99.90
19359;DHT22;9815;52.334;20.890;2022-10-31T03:35:02;6.00;99.90
19359;DHT22;9815;52.334;20.890;2022-10-31T03:37:34;6.00;99.90
19359;DHT22;9815;52.334;20.890;2022-10-31T03:40:04;6.00;99.90
19359;DHT22;9815;52.334;20.890;2022-10-31T03:42:38;6.00;99.90
19359;DHT22;9815;52.334;20.890;2022-10-31T03:45:11;6.10;99.90
19359;DHT22;9815;52.334;20.890;2022-10-31T03:47:41;6.10;99.90
19359;DHT22;9815;52.334;20.890;2022-10-31T03:50:14;6.10;99.90
19359;DHT22;9815;52.334;20.890;2022-10-31T03:52:48;6.10;99.90
19359;DHT22;9815;52.334;20.890;2022-10-31T03:55:19;6.00;99.90
19359;DHT22;9815;52.334;20.890;2022-10-31T03:57:57;5.90;99.90
19359;DHT22;9815;52.334;20.890;2022-10-31T04:00:26;5.90;99.90
19359;DHT22;9815;52.334;20.890;2022-10-31T04:02:58;5.80;99.90
19359;DHT22;9815;52.334;20.890;2022-10-31T04:05:32;5.80;99.90
19359;DHT22;9815;52.334;20.890;2022-10-31T04:08:05;5.80;99.90
19359;DHT22;9815;52.334;20.890;2022-10-31T04:10:37;5.80;99.90
19359;DHT22;9815;52.334;20.890;2022-10-31T04:13:11;5.80;99.90
19359;DHT22;9815;52.334;20.890;2022-10-31T04:15:48;5.90;99.90
19359;DHT22;9815;52.334;20.890;2022-10-31T04:18:17;5.90;99.90
19359;DHT22;9815;52.334;20.890;2022-10-31T04:20:49;5.90;99.90
19359;DHT22;9815;52.334;20.890;2022-10-31T04:23:20;5.90;99.90
19359;DHT22;9815;52.334;20.890;2022-10-31T04:25:49;5.90;99.90
19359;DHT22;9815;52.334;20.890;2022-10-31T04:28:18;5.90;99.90
19359;DHT22;9815;52.334;20.890;2022-10-31T04:30:46;5.90;99.90
19359;DHT22;9815;52.334;20.890;2022-10-31T04:33:16;5.90;99.90
19359;DHT22;9815;52.334;20.890;2022-10-31T04:35:46;5.90;99.90
19359;DHT22;9815;52.334;20.890;2022-10-31T04:38:15;5.90;99.90
19359;DHT22;9815;52.334;20.890;2022-10-31T04:40:45;5.80;99.90
19359;DHT22;9815;52.334;20.890;2022-10-31T05:21:25;5.50;99.90
19359;DHT22;9815;52.334;20.890;2022-10-31T05:23:58;5.50;99.90
19359;DHT22;9815;52.334;20.890;2022-10-31T05:26:27;5.50;99.90
19359;DHT22;9815;52.334;20.890;2022-10-31T05:28:55;5.60;99.90
19359;DHT22;9815;52.334;20.890;2022-10-31T05:31:23;5.60;99.90
19359;DHT22;9815;52.334;20.890;2022-10-31T05:33:53;5.60;99.90
19359;DHT22;9815;52.334;20.890;2022-10-31T05:36:37;5.60;99.90
19359;DHT22;9815;52.334;20.890;2022-10-31T05:39:11;5.60;99.90
19359;DHT22;9815;52.334;20.890;2022-10-31T05:41:42;5.60;99.90
19359;DHT22;9815;52.334;20.890;2022-10-31T05:44:22;5.60;99.90
19359;DHT22;9815;52.334;20.890;2022-10-31T05:47:07;5.60;99.90
19359;DHT22;9815;52.334;20.890;2022-10-31T05:49:53;5.60;99.90
19359;DHT22;9815;52.334;20.890;2022-10-31T05:52:46;5.60;99.90
19359;DHT22;9815;52.334;20.890;2022-10-31T05:55:32;5.50;99.90
19359;DHT22;9815;52.334;20.890;2022-10-31T05:58:21;5.60;99.90
19359;DHT22;9815;52.334;20.890;2022-10-31T06:00:57;5.60;99.90
19359;DHT22;9815;52.334;20.890;2022-10-31T06:03:26;5.60;99.90
19359;DHT22;9815;52.334;20.890;2022-10-31T06:05:59;5.60;99.90
19359;DHT22;9815;52.334;20.890;2022-10-31T06:08:38;5.70;99.90
19359;DHT22;9815;52.334;20.890;2022-10-31T06:11:12;5.70;99.90
19359;DHT22;9815;52.334;20.890;2022-10-31T06:13:58;5.70;99.90
19359;DHT22;9815;52.334;20.890;2022-10-31T06:16:44;5.80;99.90
19359;DHT22;9815;52.334;20.890;2022-10-31T06:19:35;5.90;99.90
19359;DHT22;9815;52.334;20.890;2022-10-31T06:22:03;5.90;99.90
19359;DHT22;9815;52.334;20.890;2022-10-31T06:24:33;6.00;99.90
19359;DHT22;9815;52.334;20.890;2022-10-31T06:27:17;6.00;99.90
19359;DHT22;9815;52.334;20.890;2022-10-31T06:29:45;6.10;99.90
19359;DHT22;9815;52.334;20.890;2022-10-31T06:32:21;6.20;99.90
19359;DHT22;9815;52.334;20.890;2022-10-31T06:34:50;6.30;99.90
19359;DHT22;9815;52.334;20.890;2022-10-31T06:37:18;6.40;99.90
19359;DHT22;9815;52.334;20.890;2022-10-31T06:39:50;6.40;99.90
19359;DHT22;9815;52.334;20.890;2022-10-31T06:42:18;6.50;99.90
19359;DHT22;9815;52.334;20.890;2022-10-31T06:44:47;6.60;99.90
19359;DHT22;9815;52.334;20.890;2022-10-31T06:47:51;6.70;99.90
19359;DHT22;9815;52.334;20.890;2022-10-31T06:50:58;6.90;99.90
19359;DHT22;9815;52.334;20.890;2022-10-31T06:53:27;6.90;99.90
19359;DHT22;9815;52.334;20.890;2022-10-31T06:55:59;7.00;99.90
19359;DHT22;9815;52.334;20.890;2022-10-31T06:58:28;7.10;99.90
19359;DHT22;9815;52.334;20.890;2022-10-31T07:01:00;7.20;99.90
19359;DHT22;9815;52.334;20.890;2022-10-31T07:03:28;7.40;99.90
19359;DHT22;9815;52.334;20.890;2022-10-31T07:05:56;7.50;99.90
19359;DHT22;9815;52.334;20.890;2022-10-31T07:08:25;7.60;99.90
19359;DHT22;9815;52.334;20.890;2022-10-31T07:10:54;7.70;99.90
19359;DHT22;9815;52.334;20.890;2022-10-31T07:13:25;7.90;99.90
19359;DHT22;9815;52.334;20.890;2022-10-31T07:16:03;8.00;99.90
19359;DHT22;9815;52.334;20.890;2022-10-31T07:18:33;8.20;99.90
19359;DHT22;9815;52.334;20.890;2022-10-31T07:21:02;8.40;99.90
19359;DHT22;9815;52.334;20.890;2022-10-31T07:23:31;8.50;99.90
19359;DHT22;9815;52.334;20.890;2022-10-31T07:26:25;8.60;99.90
19359;DHT22;9815;52.334;20.890;2022-10-31T07:28:55;8.80;99.90
19359;DHT22;9815;52.334;20.890;2022-10-31T07:31:24;8.90;99.90
19359;DHT22;9815;52.334;20.890;2022-10-31T07:33:57;9.00;99.90
19359;DHT22;9815;52.334;20.890;2022-10-31T07:36:27;9.10;99.90
19359;DHT22;9815;52.334;20.890;2022-10-31T07:39:01;9.20;99.90
19359;DHT22;9815;52.334;20.890;2022-10-31T07:41:31;9.30;99.90
19359;DHT22;9815;52.334;20.890;2022-10-31T07:44:00;9.40;99.90
19359;DHT22;9815;52.334;20.890;2022-10-31T07:46:46;9.50;99.90
19359;DHT22;9815;52.334;20.890;2022-10-31T07:49:33;9.60;99.90
19359;DHT22;9815;52.334;20.890;2022-10-31T07:52:19;9.60;99.90
19359;DHT22;9815;52.334;20.890;2022-10-31T07:55:14;9.80;99.90
19359;DHT22;9815;52.334;20.890;2022-10-31T07:57:55;9.90;99.90
19359;DHT22;9815;52.334;20.890;2022-10-31T08:00:25;9.90;99.90
19359;DHT22;9815;52.334;20.890;2022-10-31T08:02:57;10.00;99.90
19359;DHT22;9815;52.334;20.890;2022-10-31T08:05:56;10.00;99.90
19359;DHT22;9815;52.334;20.890;2022-10-31T08:08:44;10.10;99.90
19359;DHT22;9815;52.334;20.890;2022-10-31T08:11:12;10.20;99.90
19359;DHT22;9815;52.334;20.890;2022-10-31T08:13:42;10.20;99.90
19359;DHT22;9815;52.334;20.890;2022-10-31T08:16:15;10.30;99.90
19359;DHT22;9815;52.334;20.890;2022-10-31T08:18:54;10.40;99.90
19359;DHT22;9815;52.334;20.890;2022-10-31T08:21:23;10.50;99.90
19359;DHT22;9815;52.334;20.890;2022-10-31T08:23:51;10.60;99.90
19359;DHT22;9815;52.334;20.890;2022-10-31T08:26:22;10.70;99.90
19359;DHT22;9815;52.334;20.890;2022-10-31T08:28:52;10.80;99.90
19359;DHT22;9815;52.334;20.890;2022-10-31T08:31:24;11.00;99.90
19359;DHT22;9815;52.334;20.890;2022-10-31T08:34:18;11.10;99.90
19359;DHT22;9815;52.334;20.890;2022-10-31T08:36:52;11.30;99.90
19359;DHT22;9815;52.334;20.890;2022-10-31T08:39:27;11.50;99.90
19359;DHT22;9815;52.334;20.890;2022-10-31T08:41:55;11.60;99.90
19359;DHT22;9815;52.334;20.890;2022-10-31T08:44:23;11.80;99.90
19359;DHT22;9815;52.334;20.890;2022-10-31T08:46:53;12.00;99.90
19359;DHT22;9815;52.334;20.890;2022-10-31T08:49:22;12.20;99.90
19359;DHT22;9815;52.334;20.890;2022-10-31T08:51:51;12.30;99.90
19359;DHT22;9815;52.334;20.890;2022-10-31T08:54:20;12.50;99.90
19359;DHT22;9815;52.334;20.890;2022-10-31T08:56:53;12.60;99.90
19359;DHT22;9815;52.334;20.890;2022-10-31T08:59:39;12.80;99.90
19359;DHT22;9815;52.334;20.890;2022-10-31T09:02:27;13.00;99.90
19359;DHT22;9815;52.334;20.890;2022-10-31T09:04:59;13.10;99.90
19359;DHT22;9815;52.334;20.890;2022-10-31T09:07:27;13.30;99.90
19359;DHT22;9815;52.334;20.890;2022-10-31T09:09:57;13.40;99.90
19359;DHT22;9815;52.334;20.890;2022-10-31T09:12:26;13.60;99.90
19359;DHT22;9815;52.334;20.890;2022-10-31T09:15:15;13.70;99.90
19359;DHT22;9815;52.334;20.890;2022-10-31T09:17:48;13.70;99.90
19359;DHT22;9815;52.334;20.890;2022-10-31T09:20:41;13.90;99.90
19359;DHT22;9815;52.334;20.890;2022-10-31T09:23:12;13.90;99.90
19359;DHT22;9815;52.334;20.890;2022-10-31T09:25:42;14.20;99.90
19359;DHT22;9815;52.334;20.890;2022-10-31T09:28:34;14.10;99.90
19359;DHT22;9815;52.334;20.890;2022-10-31T09:31:13;14.10;99.90
19359;DHT22;9815;52.334;20.890;2022-10-31T09:33:48;14.30;99.90
19359;DHT22;9815;52.334;20.890;2022-10-31T09:36:35;14.60;99.90
19359;DHT22;9815;52.334;20.890;2022-10-31T09:39:04;14.80;99.90
19359;DHT22;9815;52.334;20.890;2022-10-31T09:41:52;15.00;99.90
19359;DHT22;9815;52.334;20.890;2022-10-31T09:44:33;15.30;99.90
19359;DHT22;9815;52.334;20.890;2022-10-31T09:47:14;15.50;99.90
19359;DHT22;9815;52.334;20.890;2022-10-31T09:50:11;15.60;97.50
19359;DHT22;9815;52.334;20.890;2022-10-31T09:52:51;15.80;97.40
19359;DHT22;9815;52.334;20.890;2022-10-31T09:55:29;15.60;97.00
19359;DHT22;9815;52.334;20.890;2022-10-31T09:57:59;15.90;96.30
19359;DHT22;9815;52.334;20.890;2022-10-31T10:00:29;15.90;96.50
19359;DHT22;9815;52.334;20.890;2022-10-31T10:03:04;16.00;96.60
19359;DHT22;9815;52.334;20.890;2022-10-31T10:05:38;16.20;95.50
19359;DHT22;9815;52.334;20.890;2022-10-31T10:08:18;16.60;95.10
19359;DHT22;9815;52.334;20.890;2022-10-31T10:11:06;16.70;92.80
19359;DHT22;9815;52.334;20.890;2022-10-31T10:13:52;16.80;92.50
19359;DHT22;9815;52.334;20.890;2022-10-31T10:16:35;16.70;91.60
19359;DHT22;9815;52.334;20.890;2022-10-31T10:19:18;16.80;92.50
19359;DHT22;9815;52.334;20.890;2022-10-31T10:21:58;17.00;92.70
19359;DHT22;9815;52.334;20.890;2022-10-31T10:24:41;17.10;91.10
19359;DHT22;9815;52.334;20.890;2022-10-31T10:27:19;17.30;89.60
19359;DHT22;9815;52.334;20.890;2022-10-31T10:29:53;17.50;85.90
19359;DHT22;9815;52.334;20.890;2022-10-31T10:32:28;17.50;90.20
19359;DHT22;9815;52.334;20.890;2022-10-31T10:35:00;17.50;87.70
19359;DHT22;9815;52.334;20.890;2022-10-31T10:37:33;17.50;86.80
19359;DHT22;9815;52.334;20.890;2022-10-31T10:40:07;17.50;90.00
19359;DHT22;9815;52.334;20.890;2022-10-31T10:42:38;17.50;88.00
19359;DHT22;9815;52.334;20.890;2022-10-31T10:45:24;17.70;85.40
19359;DHT22;9815;52.334;20.890;2022-10-31T10:48:15;17.50;84.50
19359;DHT22;9815;52.334;20.890;2022-10-31T10:50:48;17.60;88.30
19359;DHT22;9815;52.334;20.890;2022-10-31T10:53:28;17.50;87.20
19359;DHT22;9815;52.334;20.890;2022-10-31T10:56:11;17.50;88.20
19359;DHT22;9815;52.334;20.890;2022-10-31T10:58:42;17.80;84.40
19359;DHT22;9815;52.334;20.890;2022-10-31T11:01:13;17.80;87.00
19359;DHT22;9815;52.334;20.890;2022-10-31T11:03:41;17.80;89.00
19359;DHT22;9815;52.334;20.890;2022-10-31T11:06:17;17.80;86.60
19359;DHT22;9815;52.334;20.890;2022-10-31T11:08:50;17.90;85.40
19359;DHT22;9815;52.334;20.890;2022-10-31T11:11:26;17.90;86.60
19359;DHT22;9815;52.334;20.890;2022-10-31T11:14:04;17.80;85.80
19359;DHT22;9815;52.334;20.890;2022-10-31T11:16:36;18.00;86.30
19359;DHT22;9815;52.334;20.890;2022-10-31T11:19:13;18.10;83.40
19359;DHT22;9815;52.334;20.890;2022-10-31T11:21:43;18.30;84.40
19359;DHT22;9815;52.334;20.890;2022-10-31T11:24:22;18.30;83.30
19359;DHT22;9815;52.334;20.890;2022-10-31T11:26:52;18.40;80.10
19359;DHT22;9815;52.334;20.890;2022-10-31T11:29:30;18.10;81.90
19359;DHT22;9815;52.334;20.890;2022-10-31T11:32:00;18.00;82.10
19359;DHT22;9815;52.334;20.890;2022-10-31T11:34:30;18.10;87.20
19359;DHT22;9815;52.334;20.890;2022-10-31T11:37:08;18.40;83.20
19359;DHT22;9815;52.334;20.890;2022-10-31T11:39:42;18.50;79.60
19359;DHT22;9815;52.334;20.890;2022-10-31T11:42:11;18.40;79.40
19359;DHT22;9815;52.334;20.890;2022-10-31T11:44:42;18.50;81.20
19359;DHT22;9815;52.334;20.890;2022-10-31T11:47:14;18.50;81.00
19359;DHT22;9815;52.334;20.890;2022-10-31T11:49:44;18.70;80.70
19359;DHT22;9815;52.334;20.890;2022-10-31T11:52:20;18.70;79.40
19359;DHT22;9815;52.334;20.890;2022-10-31T11:54:54;18.60;80.70
19359;DHT22;9815;52.334;20.890;2022-10-31T11:57:27;18.30;81.30
19359;DHT22;9815;52.334;20.890;2022-10-31T11:59:57;18.40;82.10
19359;DHT22;9815;52.334;20.890;2022-10-31T12:02:25;18.30;85.90
19359;DHT22;9815;52.334;20.890;2022-10-31T12:05:02;18.30;82.60
19359;DHT22;9815;52.334;20.890;2022-10-31T12:07:31;18.30;84.40
19359;DHT22;9815;52.334;20.890;2022-10-31T12:10:01;18.30;84.60
19359;DHT22;9815;52.334;20.890;2022-10-31T12:12:38;18.40;84.70
19359;DHT22;9815;52.334;20.890;2022-10-31T12:15:28;18.30;85.00
19359;DHT22;9815;52.334;20.890;2022-10-31T12:18:11;18.50;87.40
19359;DHT22;9815;52.334;20.890;2022-10-31T12:20:54;18.50;86.30
19359;DHT22;9815;52.334;20.890;2022-10-31T12:23:30;18.60;85.60
19359;DHT22;9815;52.334;20.890;2022-10-31T12:26:12;18.60;87.60
19359;DHT22;9815;52.334;20.890;2022-10-31T12:28:58;18.60;85.90
19359;DHT22;9815;52.334;20.890;2022-10-31T12:31:40;18.60;83.30
19359;DHT22;9815;52.334;20.890;2022-10-31T12:37:25;18.50;84.60
19359;DHT22;9815;52.334;20.890;2022-10-31T12:43:02;18.50;86.20
19359;DHT22;9815;52.334;20.890;2022-10-31T12:45:43;18.20;87.40
19359;DHT22;9815;52.334;20.890;2022-10-31T12:48:37;18.10;90.40
19359;DHT22;9815;52.334;20.890;2022-10-31T12:51:15;17.90;91.10
19359;DHT22;9815;52.334;20.890;2022-10-31T12:54:11;17.80;91.70
19359;DHT22;9815;52.334;20.890;2022-10-31T12:56:48;17.60;92.20
19359;DHT22;9815;52.334;20.890;2022-10-31T12:59:27;17.40;93.90
19359;DHT22;9815;52.334;20.890;2022-10-31T13:02:00;17.30;95.10
19359;DHT22;9815;52.334;20.890;2022-10-31T13:04:43;17.10;95.40
19359;DHT22;9815;52.334;20.890;2022-10-31T13:07:15;17.10;95.70
19359;DHT22;9815;52.334;20.890;2022-10-31T13:09:50;17.00;96.40
19359;DHT22;9815;52.334;20.890;2022-10-31T13:12:21;16.80;97.70
19359;DHT22;9815;52.334;20.890;2022-10-31T13:14:53;16.70;98.90
19359;DHT22;9815;52.334;20.890;2022-10-31T13:17:27;16.60;99.30
19359;DHT22;9815;52.334;20.890;2022-10-31T13:20:17;16.50;99.90
19359;DHT22;9815;52.334;20.890;2022-10-31T13:22:50;16.40;99.90
19359;DHT22;9815;52.334;20.890;2022-10-31T13:25:23;16.40;99.90
19359;DHT22;9815;52.334;20.890;2022-10-31T13:27:55;16.30;99.90
19359;DHT22;9815;52.334;20.890;2022-10-31T13:30:27;16.30;99.90
19359;DHT22;9815;52.334;20.890;2022-10-31T13:32:59;16.20;99.90
19359;DHT22;9815;52.334;20.890;2022-10-31T13:35:35;16.10;99.90
19359;DHT22;9815;52.334;20.890;2022-10-31T13:38:15;16.00;99.90
19359;DHT22;9815;52.334;20.890;2022-10-31T13:40:50;15.90;99.90
19359;DHT22;9815;52.334;20.890;2022-10-31T13:43:27;15.80;99.90
19359;DHT22;9815;52.334;20.890;2022-10-31T13:45:58;15.80;99.90
19359;DHT22;9815;52.334;20.890;2022-10-31T13:48:38;15.80;99.90
19359;DHT22;9815;52.334;20.890;2022-10-31T13:51:09;15.70;99.90
19359;DHT22;9815;52.334;20.890;2022-10-31T13:53:44;15.70;99.90
19359;DHT22;9815;52.334;20.890;2022-10-31T13:56:16;15.70;99.90
19359;DHT22;9815;52.334;20.890;2022-10-31T13:58:58;15.60;99.90
19359;DHT22;9815;52.334;20.890;2022-10-31T14:01:28;15.60;99.90
19359;DHT22;9815;52.334;20.890;2022-10-31T14:04:02;15.60;99.90
19359;DHT22;9815;52.334;20.890;2022-10-31T14:06:57;15.50;99.90
19359;DHT22;9815;52.334;20.890;2022-10-31T14:09:31;15.40;99.90
19359;DHT22;9815;52.334;20.890;2022-10-31T14:12:03;15.30;99.90
19359;DHT22;9815;52.334;20.890;2022-10-31T14:14:45;15.30;99.90
19359;DHT22;9815;52.334;20.890;2022-10-31T14:17:24;15.20;99.90
19359;DHT22;9815;52.334;20.890;2022-10-31T14:19:59;15.00;99.90
19359;DHT22;9815;52.334;20.890;2022-10-31T14:22:31;14.80;99.90
19359;DHT22;9815;52.334;20.890;2022-10-31T14:25:24;14.70;99.90
19359;DHT22;9815;52.334;20.890;2022-10-31T14:27:52;14.60;99.90
19359;DHT22;9815;52.334;20.890;2022-10-31T14:30:22;14.40;99.90
19359;DHT22;9815;52.334;20.890;2022-10-31T14:32:55;14.40;99.90
19359;DHT22;9815;52.334;20.890;2022-10-31T14:35:45;14.20;99.90
19359;DHT22;9815;52.334;20.890;2022-10-31T14:38:41;14.10;99.90
19359;DHT22;9815;52.334;20.890;2022-10-31T14:41:37;14.00;99.90
19359;DHT22;9815;52.334;20.890;2022-10-31T14:44:43;13.90;99.90
19359;DHT22;9815;52.334;20.890;2022-10-31T14:47:19;13.80;99.90
19359;DHT22;9815;52.334;20.890;2022-10-31T14:52:54;13.60;99.90
19359;DHT22;9815;52.334;20.890;2022-10-31T14:55:24;13.50;99.90
19359;DHT22;9815;52.334;20.890;2022-10-31T14:57:57;13.30;99.90
19359;DHT22;9815;52.334;20.890;2022-10-31T15:00:26;13.20;99.90
19359;DHT22;9815;52.334;20.890;2022-10-31T15:03:14;13.10;99.90
19359;DHT22;9815;52.334;20.890;2022-10-31T15:05:47;13.00;99.90
19359;DHT22;9815;52.334;20.890;2022-10-31T15:08:29;12.90;99.90
19359;DHT22;9815;52.334;20.890;2022-10-31T15:10:57;12.80;99.90
19359;DHT22;9815;52.334;20.890;2022-10-31T15:13:25;12.70;99.90
19359;DHT22;9815;52.334;20.890;2022-10-31T15:15:55;12.70;99.90
19359;DHT22;9815;52.334;20.890;2022-10-31T15:18:25;12.60;99.90
19359;DHT22;9815;52.334;20.890;2022-10-31T15:20:56;12.60;99.90
19359;DHT22;9815;52.334;20.890;2022-10-31T15:23:26;12.40;99.90
19359;DHT22;9815;52.334;20.890;2022-10-31T15:25:58;12.40;99.90
19359;DHT22;9815;52.334;20.890;2022-10-31T15:28:27;12.30;99.90
19359;DHT22;9815;52.334;20.890;2022-10-31T15:30:57;12.20;99.90
19359;DHT22;9815;52.334;20.890;2022-10-31T15:33:27;12.20;99.90
19359;DHT22;9815;52.334;20.890;2022-10-31T15:36:05;12.20;99.90
19359;DHT22;9815;52.334;20.890;2022-10-31T15:38:52;12.10;99.90
19359;DHT22;9815;52.334;20.890;2022-10-31T15:41:30;12.10;99.90
19359;DHT22;9815;52.334;20.890;2022-10-31T15:44:04;12.00;99.90
19359;DHT22;9815;52.334;20.890;2022-10-31T15:46:33;12.00;99.90
19359;DHT22;9815;52.334;20.890;2022-10-31T15:49:01;11.90;99.90
19359;DHT22;9815;52.334;20.890;2022-10-31T15:51:33;11.90;99.90
19359;DHT22;9815;52.334;20.890;2022-10-31T15:54:04;11.90;99.90
19359;DHT22;9815;52.334;20.890;2022-10-31T15:56:32;11.90;99.90
19359;DHT22;9815;52.334;20.890;2022-10-31T16:44:52;12.20;99.90
19359;DHT22;9815;52.334;20.890;2022-10-31T16:47:20;12.20;99.90
19359;DHT22;9815;52.334;20.890;2022-10-31T16:49:54;12.20;99.90
19359;DHT22;9815;52.334;20.890;2022-10-31T16:52:26;12.20;99.90
19359;DHT22;9815;52.334;20.890;2022-10-31T16:55:11;12.20;99.90
19359;DHT22;9815;52.334;20.890;2022-10-31T16:57:41;12.20;99.90
19359;DHT22;9815;52.334;20.890;2022-10-31T17:00:14;12.20;99.90
19359;DHT22;9815;52.334;20.890;2022-10-31T17:02:43;12.20;99.90
19359;DHT22;9815;52.334;20.890;2022-10-31T17:05:14;12.20;99.90
19359;DHT22;9815;52.334;20.890;2022-10-31T17:07:42;12.30;99.90
19359;DHT22;9815;52.334;20.890;2022-10-31T17:10:11;12.30;99.90
19359;DHT22;9815;52.334;20.890;2022-10-31T17:12:42;12.40;99.90
19359;DHT22;9815;52.334;20.890;2022-10-31T17:15:17;12.30;99.90
19359;DHT22;9815;52.334;20.890;2022-10-31T17:17:46;12.40;99.90
19359;DHT22;9815;52.334;20.890;2022-10-31T17:20:19;12.40;99.90
19359;DHT22;9815;52.334;20.890;2022-10-31T17:22:48;12.50;99.90
19359;DHT22;9815;52.334;20.890;2022-10-31T17:25:18;12.50;99.90
19359;DHT22;9815;52.334;20.890;2022-10-31T17:27:46;12.40;99.90
19359;DHT22;9815;52.334;20.890;2022-10-31T17:30:16;12.50;99.90
19359;DHT22;9815;52.334;20.890;2022-10-31T17:32:45;12.40;99.90
19359;DHT22;9815;52.334;20.890;2022-10-31T17:35:15;12.40;99.90
19359;DHT22;9815;52.334;20.890;2022-10-31T17:37:44;12.40;99.90
19359;DHT22;9815;52.334;20.890;2022-10-31T17:40:15;12.40;99.90
19359;DHT22;9815;52.334;20.890;2022-10-31T17:42:48;12.40;99.90
19359;DHT22;9815;52.334;20.890;2022-10-31T17:45:18;12.40;99.90
19359;DHT22;9815;52.334;20.890;2022-10-31T17:47:46;12.40;99.90
19359;DHT22;9815;52.334;20.890;2022-10-31T17:50:15;12.40;99.90
19359;DHT22;9815;52.334;20.890;2022-10-31T17:52:43;12.40;99.90
19359;DHT22;9815;52.334;20.890;2022-10-31T17:55:12;12.40;99.90
19359;DHT22;9815;52.334;20.890;2022-10-31T17:57:40;12.40;99.90
19359;DHT22;9815;52.334;20.890;2022-10-31T18:00:12;12.40;99.90